Air Navigation Services of Czech Republic  
Last data update:  30.05.2016 18:13:13 UTC Česká verze
   METEO Page displayed:  30.05.2016 18:15:44 UTC  
help
METAR EDDB 301750Z 34004KT 310V020 9999 -RA VCTS FEW020CB BKN090 18/16 Q1007 RETSRA BECMG NSW=
METAR EDDC 301750Z 16005KT 130V190 CAVOK 23/10 Q1006 NOSIG=
METAR EDDE 301750Z 17009KT 9999 FEW026 BKN080 18/14 Q1006 NOSIG=
METAR EDDF 301750Z 21008KT 170V230 9999 3300NW SHRA FEW009 BKN019CB 16/15 Q1005 BECMG 5000 NSW=
METAR EDDM 301750Z 20011KT 9999 4900NE SHRA FEW010 SCT035CB BKN060 14/14 Q1009 BECMG NSW=
METAR EDDN 301750Z 20006KT 150V230 9999 -SHRA FEW012 FEW025CB SCT090 19/14 Q1007 NOSIG=
METAR EDDP 301750Z 20008KT 9999 FEW040 21/13 Q1006 NOSIG=
METAR EDDT 301750Z 16023G34KT 120V210 1400 R08L/P2000N R08R/1900N +TSRA BKN004 BKN015CB 17/14 Q1007 BECMG 5000 NSW=
METAR COR EDQM 301750Z 21008KT 9999 -SHRA SCT025 SCT049 15/11 Q1008=
METAR EPBY 301800Z 21007KT 9999 FEW016 SCT060CB 19/18 Q1008 RETSRA =
METAR EPGD 301800Z 07012KT CAVOK 22/16 Q1011 =
METAR EPKK 301800Z 27003KT 220V320 9999 FEW050CB 21/15 Q1007 RETS =
METAR EPKT 301800Z 09005KT CAVOK 18/17 Q1008 =
METAR EPLL 301800Z 14007KT 9999 -TSRA BKN060CB 19/17 Q1008 =
METAR EPPO 301800Z 12005KT 9999 FEW050CB 20/16 Q1007 =
METAR EPRZ 301800Z VRB01KT CAVOK 20/15 Q1009 =
METAR EPWA 301800Z 10014KT 9999 -SHRA FEW033 SCT046CB 21/17 Q1009 TEMPO SHRA=
METAR EPWR 301800Z 16008KT 9999 FEW060TCU 25/14 Q1006 =
METAR LHBP 301800Z VRB03KT CAVOK 22/16 Q1008 NOSIG=
METAR LHSM 301545Z 21012KT CAVOK 24/11 Q1009 NOSIG=
SPECI LKCV 301810Z 19005KT 160V230 9999 TS BKN050CB SCT100 22/13 Q1007 =
METAR LKKB 301800Z 23002KT CAVOK 23/12 Q1007 NOSIG=
METAR LKKU 301400Z 15010KT CAVOK 26/12 Q1007=
METAR LKKV 301800Z VRB02KT 9999 FEW028 17/12 Q1008 RMK REG QNH 1005=
METAR LKLN NIL
METAR LKMT 301800Z 22006KT CAVOK 22/12 Q1007 NOSIG RMK REG QNH 1005=
METAR LKNA 301800Z 17004KT 9999 FEW040 SCT100 20/14 Q1008 NOSIG=
METAR LKPD 301800Z 08006KT 050V140 9999 VCSH NSC 21/15 Q1007 NOSIG=
METAR LKPR 301800Z 25005KT 9999 FEW046TCU 20/14 Q1007 NOSIG RMK REG QNH 1005=
METAR LKTB 301800Z 10005KT 9999 FEW046CB 21/14 Q1007 NOSIG RMK REG QNH 1005=
METAR LKVO NIL
METAR LOWI 301750Z 24003KT 190V280 9999 FEW007 SCT060 BKN075 13/11 Q1011 NOSIG=
METAR LOWL 301750Z 31009KT 9999 FEW040 BKN100 19/13 Q1008 NOSIG=
METAR LOWS 301750Z 22004KT 7000 RA FEW005 SCT050 BKN070 14/13 Q1010 TEMPO -RA=
METAR LOWW 301750Z 22005KT 190V250 9999 FEW050 BKN090 19/14 Q1008 NOSIG=
METAR LZIB 301800Z 21003KT 9999 FEW044 22/13 Q1007 NOSIG=
METAR LZKZ 301800Z 23006KT 190V250 9999 FEW031 SCT045 22/17 Q1009=
METAR LZPP 301800Z 15005KT 9999 FEW050CB 23/13 Q1007=
METAR LZSL 301800Z 17006KT CAVOK 22/14 Q1009=
METAR LZTT 301800Z VRB02KT 9999 FEW050 SCT056 16/14 Q1010=
METAR LZZI 301800Z 20004KT CAVOK 22/13 Q1008=